createdAt,value
2017-11-04T00:01:10.926Z,2.91
2017-11-04T00:03:39.460Z,2.95
2017-11-04T00:06:08.074Z,2.91
2017-11-04T00:08:36.539Z,2.94
2017-11-04T00:11:05.184Z,2.85
2017-11-04T00:13:33.801Z,2.68
2017-11-04T00:16:02.226Z,2.70
2017-11-04T00:18:30.697Z,2.87
2017-11-04T00:21:00.188Z,2.81
2017-11-04T00:23:28.695Z,2.67
2017-11-04T00:25:57.364Z,2.84
2017-11-04T00:28:26.082Z,2.77
2017-11-04T00:30:54.592Z,2.71
2017-11-04T00:33:22.995Z,2.78
2017-11-04T00:35:51.360Z,2.77
2017-11-04T00:38:19.740Z,2.71
2017-11-04T00:40:48.139Z,2.80
2017-11-04T00:43:16.527Z,2.74
2017-11-04T00:45:44.884Z,2.71
2017-11-04T00:48:13.248Z,2.72
2017-11-04T00:50:41.608Z,2.80
2017-11-04T00:53:10.004Z,2.75
2017-11-04T00:55:38.379Z,2.73
2017-11-04T00:58:06.754Z,2.79
2017-11-04T01:00:35.150Z,2.66
2017-11-04T01:03:03.509Z,2.72
2017-11-04T01:05:31.872Z,2.74
2017-11-04T01:08:00.278Z,2.73
2017-11-04T01:10:28.644Z,2.88
2017-11-04T01:12:57.112Z,2.74
2017-11-04T01:15:25.490Z,2.82
2017-11-04T01:17:53.852Z,2.82
2017-11-04T01:20:22.962Z,2.87
2017-11-04T01:22:51.336Z,3.01
2017-11-04T01:25:19.692Z,3.07
2017-11-04T01:27:48.052Z,3.10
2017-11-04T01:30:16.432Z,3.04
2017-11-04T01:32:44.825Z,2.97
2017-11-04T01:35:13.203Z,2.92
2017-11-04T01:37:41.594Z,3.02
2017-11-04T01:40:09.956Z,2.94
2017-11-04T01:42:38.340Z,3.02
2017-11-04T01:45:06.702Z,2.87
2017-11-04T01:47:35.138Z,2.85
2017-11-04T01:50:03.543Z,2.88
2017-11-04T01:52:31.932Z,2.92
2017-11-04T01:55:00.311Z,3.00
2017-11-04T01:57:28.689Z,2.97
2017-11-04T01:59:57.072Z,3.06
2017-11-04T02:02:25.438Z,3.04
2017-11-04T02:04:53.832Z,3.03
2017-11-04T02:07:22.197Z,3.14
2017-11-04T02:09:50.556Z,3.08
2017-11-04T02:12:18.937Z,3.04
2017-11-04T02:14:47.301Z,3.02
2017-11-04T02:17:15.700Z,3.09
2017-11-04T02:19:44.098Z,3.17
2017-11-04T02:22:12.460Z,3.12
2017-11-04T02:24:40.855Z,3.24
2017-11-04T02:27:09.253Z,3.24
2017-11-04T02:29:37.628Z,3.31
2017-11-04T02:32:06.110Z,3.28
2017-11-04T02:34:34.491Z,3.21
2017-11-04T02:37:02.855Z,3.13
2017-11-04T02:39:31.211Z,3.19
2017-11-04T02:41:59.718Z,3.35
2017-11-04T02:44:28.092Z,3.34
2017-11-04T02:46:56.450Z,3.35
2017-11-04T02:49:24.843Z,3.31
2017-11-04T02:51:53.215Z,3.36
2017-11-04T02:54:21.608Z,3.33
2017-11-04T02:56:50.005Z,3.41
2017-11-04T02:59:18.397Z,3.32
2017-11-04T03:01:46.764Z,3.32
2017-11-04T03:04:15.126Z,3.28
2017-11-04T03:06:43.510Z,3.34
2017-11-04T03:09:11.878Z,3.40
2017-11-04T03:11:40.268Z,3.45
2017-11-04T03:14:08.677Z,3.41
2017-11-04T03:16:37.045Z,3.52
2017-11-04T03:19:05.455Z,3.42
2017-11-04T03:21:33.817Z,3.42
2017-11-04T03:24:02.201Z,3.53
2017-11-04T03:26:30.575Z,3.42
2017-11-04T03:28:58.940Z,3.51
2017-11-04T03:31:27.334Z,3.66
2017-11-04T03:33:55.708Z,3.59
2017-11-04T03:36:24.108Z,3.59
2017-11-04T03:38:52.475Z,3.73
2017-11-04T03:41:20.845Z,3.75
2017-11-04T03:43:49.204Z,3.75
2017-11-04T03:46:17.588Z,3.80
2017-11-04T03:48:45.985Z,3.81
2017-11-04T03:51:14.372Z,3.82
2017-11-04T03:53:42.734Z,3.84
2017-11-04T03:56:11.085Z,3.84
2017-11-04T03:58:39.455Z,3.92
2017-11-04T04:01:07.838Z,3.96
2017-11-04T04:03:36.218Z,4.02
2017-11-04T04:06:04.584Z,3.93
2017-11-04T04:08:32.963Z,4.01
2017-11-04T04:11:01.337Z,3.93
2017-11-04T04:13:29.810Z,3.85
2017-11-04T04:15:58.172Z,3.90
2017-11-04T04:18:26.536Z,3.93
2017-11-04T04:20:54.899Z,3.83
2017-11-04T04:23:23.258Z,3.94
2017-11-04T04:25:51.676Z,3.98
2017-11-04T04:28:20.043Z,3.95
2017-11-04T04:30:48.417Z,3.95
2017-11-04T04:33:16.770Z,3.81
2017-11-04T04:35:45.124Z,3.73
2017-11-04T04:38:13.506Z,3.80
2017-11-04T04:40:41.990Z,3.66
2017-11-04T04:43:10.376Z,3.68
2017-11-04T04:45:38.726Z,3.74
2017-11-04T04:48:07.094Z,3.81
2017-11-04T04:50:35.455Z,3.93
2017-11-04T04:53:03.853Z,3.99
2017-11-04T04:55:32.214Z,4.03
2017-11-04T04:58:00.609Z,4.01
2017-11-04T05:00:29.004Z,4.00
2017-11-04T05:02:57.387Z,4.03
2017-11-04T05:05:25.748Z,4.05
2017-11-04T05:07:54.135Z,3.99
2017-11-04T05:10:22.495Z,4.10
2017-11-04T05:12:50.858Z,4.01
2017-11-04T05:15:19.210Z,3.99
2017-11-04T05:17:47.611Z,4.07
2017-11-04T05:20:15.957Z,3.98
2017-11-04T05:22:44.335Z,3.99
2017-11-04T05:25:12.839Z,3.96
2017-11-04T05:27:41.192Z,4.11
2017-11-04T05:30:09.555Z,4.14
2017-11-04T05:32:37.907Z,4.08
2017-11-04T05:35:06.266Z,3.99
2017-11-04T05:37:34.659Z,4.13
2017-11-04T05:40:03.059Z,4.06
2017-11-04T05:42:31.410Z,3.99
2017-11-04T05:44:59.903Z,4.03
2017-11-04T05:47:28.256Z,4.03
2017-11-04T05:49:56.627Z,4.04
2017-11-04T05:52:25.037Z,4.15
2017-11-04T05:54:53.387Z,4.15
2017-11-04T05:57:21.747Z,4.07
2017-11-04T05:59:50.129Z,4.22
2017-11-04T06:02:18.517Z,4.33
2017-11-04T06:04:46.868Z,4.17
2017-11-04T06:07:15.230Z,4.11
2017-11-04T06:09:43.698Z,4.06
2017-11-04T06:12:12.051Z,4.10
2017-11-04T06:14:40.411Z,4.17
2017-11-04T06:17:08.773Z,4.17
2017-11-04T06:19:37.139Z,4.14
2017-11-04T06:22:05.652Z,4.13
2017-11-04T06:24:34.034Z,4.15
2017-11-04T06:27:02.411Z,4.28
2017-11-04T06:29:30.759Z,4.19
2017-11-04T06:31:59.142Z,4.21
2017-11-04T06:34:27.536Z,4.30
2017-11-04T06:36:56.674Z,4.36
2017-11-04T06:39:25.261Z,4.51
2017-11-04T06:41:53.625Z,4.63
2017-11-04T06:44:21.978Z,4.68
2017-11-04T06:46:50.345Z,4.84
2017-11-04T06:49:18.710Z,4.82
2017-11-04T06:51:47.091Z,4.94
2017-11-04T06:54:15.490Z,4.93
2017-11-04T06:56:43.867Z,5.09
2017-11-04T06:59:12.255Z,5.12
2017-11-04T07:01:40.608Z,5.18
2017-11-04T07:04:08.997Z,5.06
2017-11-04T07:06:37.370Z,5.30
2017-11-04T07:09:05.747Z,5.33
2017-11-04T07:11:34.098Z,5.41
2017-11-04T07:14:02.555Z,5.50
2017-11-04T07:16:30.899Z,5.32
2017-11-04T07:18:59.259Z,5.41
2017-11-04T07:21:27.649Z,5.60
2017-11-04T07:23:55.999Z,5.52
2017-11-04T07:26:24.368Z,5.66
2017-11-04T07:28:53.600Z,5.77
2017-11-04T07:31:21.983Z,5.84
2017-11-04T07:33:50.336Z,5.89
2017-11-04T07:36:18.691Z,5.90
2017-11-04T07:38:47.085Z,5.92
2017-11-04T07:41:15.441Z,5.97
2017-11-04T07:43:43.842Z,6.12
2017-11-04T07:46:12.239Z,6.24
2017-11-04T07:48:40.623Z,6.41
2017-11-04T07:51:08.992Z,6.50
2017-11-04T07:53:37.385Z,6.57
2017-11-04T07:56:05.752Z,6.65
2017-11-04T07:58:34.223Z,6.52
2017-11-04T08:01:02.602Z,6.70
2017-11-04T08:03:30.953Z,6.61
2017-11-04T08:05:59.356Z,6.77
2017-11-04T08:08:27.735Z,6.94
2017-11-04T08:10:56.112Z,7.12
2017-11-04T08:13:24.492Z,7.19
2017-11-04T08:15:52.867Z,7.40
2017-11-04T08:18:21.334Z,7.40
2017-11-04T08:20:49.700Z,7.59
2017-11-04T08:23:18.089Z,7.63
2017-11-04T08:25:46.456Z,7.82
2017-11-04T08:28:14.844Z,7.96
2017-11-04T08:30:45.294Z,7.92
2017-11-04T08:33:13.657Z,8.19
2017-11-04T08:35:42.053Z,8.33
2017-11-04T08:38:10.460Z,8.35
2017-11-04T08:40:38.822Z,8.50
2017-11-04T08:43:07.197Z,8.62
2017-11-04T08:45:35.632Z,8.88
2017-11-04T08:48:04.029Z,8.94
2017-11-04T08:50:32.396Z,9.16
2017-11-04T08:53:00.769Z,9.48
2017-11-04T08:55:29.138Z,9.54
2017-11-04T08:57:57.508Z,9.79
2017-11-04T09:00:25.895Z,9.87
2017-11-04T09:02:54.275Z,9.88
2017-11-04T09:05:24.587Z,9.82
2017-11-04T09:07:53.028Z,9.81
2017-11-04T13:21:49.875Z,15.45
2017-11-04T13:24:18.342Z,15.24
2017-11-04T13:26:46.721Z,15.40
2017-11-04T13:29:15.099Z,15.56
2017-11-04T13:31:43.452Z,15.65
2017-11-04T13:34:11.819Z,15.57
2017-11-04T13:36:40.196Z,15.46
2017-11-04T13:39:08.578Z,15.25
2017-11-04T13:41:36.981Z,14.99
2017-11-04T13:44:05.522Z,14.88
2017-11-04T13:46:33.876Z,14.77
2017-11-04T13:49:02.279Z,14.56
2017-11-04T13:51:30.644Z,14.56
2017-11-04T13:53:58.999Z,14.47
2017-11-04T13:56:27.367Z,14.47
2017-11-04T13:58:55.734Z,14.26
2017-11-04T14:01:24.979Z,14.17
2017-11-04T14:03:53.331Z,13.91
2017-11-04T14:06:21.718Z,13.73
2017-11-04T14:08:50.111Z,13.57
2017-11-04T14:11:18.468Z,13.54
2017-11-04T14:13:46.820Z,13.41
2017-11-04T14:16:15.192Z,13.19
2017-11-04T14:18:43.550Z,13.06
2017-11-04T14:21:13.333Z,12.93
2017-11-04T14:23:41.743Z,12.87
2017-11-04T14:26:10.259Z,12.58
2017-11-04T14:28:38.762Z,12.45
2017-11-04T14:31:07.128Z,12.20
2017-11-04T14:33:35.539Z,12.16
2017-11-04T14:36:03.906Z,12.14
2017-11-04T14:38:32.277Z,11.98
2017-11-04T14:41:00.663Z,11.86
2017-11-04T14:43:29.030Z,11.89
2017-11-04T14:45:57.385Z,11.79
2017-11-04T14:48:25.760Z,11.79
2017-11-04T14:50:54.173Z,11.82
2017-11-04T14:53:22.515Z,11.82
2017-11-04T14:55:50.931Z,11.85
2017-11-04T14:58:19.331Z,11.86
2017-11-04T15:00:47.713Z,11.76
2017-11-04T15:03:16.079Z,11.74
2017-11-04T15:05:44.434Z,11.75
2017-11-04T15:08:12.795Z,11.63
2017-11-04T15:10:41.155Z,11.62
2017-11-04T15:13:09.528Z,11.58
2017-11-04T15:15:37.880Z,11.46
2017-11-04T15:18:06.245Z,11.35
2017-11-04T15:20:34.632Z,11.31
2017-11-04T15:23:03.019Z,11.37
2017-11-04T15:25:31.430Z,11.22
2017-11-04T15:27:59.795Z,11.17
2017-11-04T15:30:28.164Z,11.15
2017-11-04T15:32:56.565Z,11.14
2017-11-04T15:35:24.936Z,11.08
2017-11-04T15:37:53.296Z,11.10
2017-11-04T15:40:21.660Z,11.03
2017-11-04T15:42:50.103Z,11.03
2017-11-04T15:45:18.512Z,10.94
2017-11-04T15:47:46.873Z,11.01
2017-11-04T15:50:15.241Z,10.90
2017-11-04T15:52:43.599Z,10.91
2017-11-04T15:55:11.968Z,10.97
2017-11-04T15:57:40.427Z,10.92
2017-11-04T16:00:09.724Z,10.88
2017-11-04T16:02:38.212Z,10.80
2017-11-04T16:05:06.584Z,10.71
2017-11-04T16:07:35.052Z,10.63
2017-11-04T16:10:03.466Z,10.63
2017-11-04T16:12:31.840Z,10.52
2017-11-04T16:15:00.250Z,10.47
2017-11-04T16:17:28.654Z,10.47
2017-11-04T16:19:57.007Z,10.47
2017-11-04T16:22:25.415Z,10.35
2017-11-04T16:24:53.789Z,10.36
2017-11-04T16:27:22.185Z,10.43
2017-11-04T16:29:50.557Z,10.51
2017-11-04T16:32:18.969Z,10.40
2017-11-04T16:34:47.339Z,10.43
2017-11-04T16:37:15.704Z,10.42
2017-11-04T16:39:44.067Z,10.48
2017-11-04T16:42:12.440Z,10.47
2017-11-04T16:44:40.831Z,10.51
2017-11-04T16:47:09.187Z,10.49
2017-11-04T16:49:37.576Z,10.52
2017-11-04T16:52:05.956Z,10.56
2017-11-04T16:54:34.341Z,10.49
2017-11-04T16:57:02.732Z,10.48
2017-11-04T16:59:31.101Z,10.47
2017-11-04T17:01:59.456Z,10.56
2017-11-04T17:04:29.546Z,10.56
2017-11-04T17:06:57.940Z,10.59
2017-11-04T17:09:26.358Z,10.63
2017-11-04T17:11:54.721Z,10.60
2017-11-04T17:14:23.108Z,10.70
2017-11-04T17:16:51.481Z,10.58
2017-11-04T17:19:19.829Z,10.62
2017-11-04T17:21:48.238Z,10.63
2017-11-04T17:24:16.642Z,10.61
2017-11-04T17:26:45.033Z,10.56
2017-11-04T17:29:13.405Z,10.62
2017-11-04T17:31:41.909Z,10.56
2017-11-04T17:34:10.325Z,10.52
2017-11-04T17:36:38.674Z,10.59
2017-11-04T17:39:07.049Z,10.65
2017-11-04T17:41:35.414Z,10.72
2017-11-04T17:44:03.791Z,10.74
2017-11-04T17:46:32.325Z,10.80
2017-11-04T17:49:00.869Z,10.79
2017-11-04T17:51:29.346Z,10.71
2017-11-04T17:53:57.699Z,10.76
2017-11-04T17:56:26.121Z,10.84
2017-11-04T17:58:54.602Z,10.79
2017-11-04T18:01:23.006Z,10.84
2017-11-04T18:03:51.380Z,10.96
2017-11-04T18:06:19.778Z,11.00
2017-11-04T18:08:48.157Z,10.94
2017-11-04T18:11:16.551Z,10.96
2017-11-04T18:13:44.961Z,10.94
2017-11-04T18:16:13.406Z,11.02
2017-11-04T18:18:41.784Z,11.13
2017-11-04T18:21:10.229Z,11.11
2017-11-04T18:23:38.592Z,10.99
2017-11-04T18:26:07.037Z,11.03
2017-11-04T18:28:35.395Z,11.04
2017-11-04T18:31:03.812Z,11.04
2017-11-04T18:33:33.107Z,11.08
2017-11-04T18:36:01.489Z,11.12
2017-11-04T18:38:29.916Z,11.19
2017-11-04T18:40:58.283Z,11.28
2017-11-04T18:43:26.704Z,11.18
2017-11-04T18:45:55.074Z,11.13
2017-11-04T18:48:23.571Z,11.12
2017-11-04T18:50:51.938Z,11.24
2017-11-04T18:53:20.337Z,11.28
2017-11-04T18:55:48.690Z,11.21
2017-11-04T18:58:17.068Z,11.31
2017-11-04T19:00:45.509Z,11.20
2017-11-04T19:03:13.892Z,11.24
2017-11-04T19:05:42.265Z,11.25
2017-11-04T19:08:10.625Z,11.22
2017-11-04T19:10:39.122Z,11.26
2017-11-04T19:13:07.592Z,11.29
2017-11-04T19:15:35.960Z,11.31
2017-11-04T19:18:04.344Z,11.38
2017-11-04T19:20:32.744Z,11.43
2017-11-04T19:23:01.124Z,11.42
2017-11-04T19:25:29.491Z,11.41
2017-11-04T19:27:57.865Z,11.36
2017-11-04T19:30:26.248Z,11.42
2017-11-04T19:32:54.671Z,11.35
2017-11-04T19:35:23.028Z,11.48
2017-11-04T19:37:51.396Z,11.55
2017-11-04T19:40:19.771Z,11.51
2017-11-04T19:42:48.141Z,11.57
2017-11-04T19:45:16.521Z,11.54
2017-11-04T19:47:44.919Z,11.66
2017-11-04T19:50:13.321Z,11.62
2017-11-04T19:52:41.722Z,11.68
2017-11-04T19:55:10.079Z,11.69
2017-11-04T19:57:38.567Z,11.71
2017-11-04T20:00:06.984Z,11.73
2017-11-04T20:02:35.468Z,11.74
2017-11-04T20:05:03.833Z,11.72
2017-11-04T20:07:32.229Z,11.75
2017-11-04T20:10:00.594Z,11.82
2017-11-04T20:12:28.979Z,11.68
2017-11-04T20:14:57.373Z,11.60
2017-11-04T20:17:25.769Z,11.68
2017-11-04T20:19:54.134Z,11.61
2017-11-04T20:22:22.551Z,11.71
2017-11-04T20:24:50.922Z,11.68
2017-11-04T20:27:19.329Z,11.66
2017-11-04T20:29:47.706Z,11.69
2017-11-04T20:32:16.272Z,11.76
2017-11-04T20:34:44.644Z,11.75
2017-11-04T20:37:13.120Z,11.65
2017-11-04T20:39:41.620Z,11.73
2017-11-04T20:42:10.014Z,11.66
2017-11-04T20:44:38.404Z,11.57
2017-11-04T20:47:06.801Z,11.61
2017-11-04T20:49:35.258Z,11.61
2017-11-04T20:52:03.676Z,11.62
2017-11-04T20:54:32.049Z,11.62
2017-11-04T20:57:00.420Z,11.64
2017-11-04T20:59:28.825Z,11.64
2017-11-04T21:01:57.284Z,11.64
2017-11-04T21:04:25.634Z,11.65
2017-11-04T21:06:53.999Z,11.65
2017-11-04T21:09:22.369Z,11.63
2017-11-04T21:11:50.759Z,11.63
2017-11-04T21:14:19.339Z,11.67
2017-11-04T21:16:47.711Z,11.62
2017-11-04T21:19:16.078Z,11.66
2017-11-04T21:21:44.494Z,11.69
2017-11-04T21:24:12.869Z,11.71
2017-11-04T21:26:41.383Z,11.77
2017-11-04T21:29:09.810Z,11.76
2017-11-04T21:31:38.168Z,11.81
2017-11-04T21:34:06.568Z,11.79
2017-11-04T21:36:35.018Z,11.77
2017-11-04T21:39:04.649Z,11.81
2017-11-04T21:41:33.185Z,11.88
2017-11-04T21:44:01.862Z,11.99
2017-11-04T21:46:30.245Z,11.98
2017-11-04T21:48:58.643Z,11.93
2017-11-04T21:51:27.016Z,12.05
2017-11-04T21:53:55.446Z,12.05
2017-11-04T21:56:23.872Z,11.98
2017-11-04T21:58:52.261Z,11.95
2017-11-04T22:01:20.676Z,11.85
2017-11-04T22:03:49.065Z,11.92
2017-11-04T22:06:17.492Z,11.90
2017-11-04T22:08:45.890Z,11.95
2017-11-04T22:11:14.294Z,11.91
2017-11-04T22:13:42.691Z,12.02
2017-11-04T22:16:11.072Z,12.05
2017-11-04T22:18:39.432Z,12.03
2017-11-04T22:21:07.796Z,11.98
2017-11-04T22:23:36.172Z,11.98
2017-11-04T22:26:04.552Z,12.06
2017-11-04T22:28:32.929Z,11.97
2017-11-04T22:31:01.332Z,12.04
2017-11-04T22:33:29.729Z,12.13
2017-11-04T22:35:58.085Z,11.94
2017-11-04T22:38:26.453Z,12.02
2017-11-04T22:40:54.959Z,12.04
2017-11-04T22:43:23.339Z,12.01
2017-11-04T22:45:51.744Z,12.04
2017-11-04T22:48:20.108Z,12.09
2017-11-04T22:50:48.459Z,12.03
2017-11-04T22:53:16.843Z,12.09
2017-11-04T22:55:45.204Z,12.06
2017-11-04T22:58:13.574Z,12.08
2017-11-04T23:00:41.938Z,12.09
2017-11-04T23:03:10.324Z,12.02
2017-11-04T23:05:38.692Z,12.02
2017-11-04T23:08:07.060Z,12.07
2017-11-04T23:10:35.441Z,12.09
2017-11-04T23:13:03.833Z,12.05
2017-11-04T23:15:32.224Z,12.10
2017-11-04T23:18:00.608Z,12.20
2017-11-04T23:20:28.987Z,12.09
2017-11-04T23:22:57.353Z,12.16
2017-11-04T23:25:25.752Z,12.17
2017-11-04T23:27:54.113Z,12.22
2017-11-04T23:30:22.497Z,12.24
2017-11-04T23:32:50.868Z,12.22
2017-11-04T23:35:19.220Z,12.17
2017-11-04T23:37:47.596Z,12.12
2017-11-04T23:40:15.978Z,12.13
2017-11-04T23:42:44.338Z,12.09
2017-11-04T23:45:12.727Z,12.03
2017-11-04T23:47:41.088Z,12.21
2017-11-04T23:50:09.480Z,12.08
2017-11-04T23:52:37.848Z,12.06
2017-11-04T23:55:06.232Z,12.07
2017-11-04T23:57:34.597Z,11.98
